createdAt,value
2016-05-11T00:00:08.306Z,18.77
2016-05-11T00:01:08.121Z,18.67
2016-05-11T00:02:08.092Z,18.73
2016-05-11T00:03:08.251Z,18.7
2016-05-11T00:04:08.208Z,18.62
2016-05-11T00:05:08.194Z,18.7
2016-05-11T00:06:08.181Z,18.61
2016-05-11T00:07:08.169Z,18.64
2016-05-11T00:08:08.155Z,18.68
2016-05-11T00:09:08.143Z,18.65
2016-05-11T00:10:08.130Z,18.57
2016-05-11T00:11:08.101Z,18.61
2016-05-11T00:12:08.073Z,18.58
2016-05-11T00:13:08.060Z,18.59
2016-05-11T00:14:08.046Z,18.61
2016-05-11T00:15:08.113Z,18.62
2016-05-11T00:16:07.849Z,18.64
2016-05-11T00:17:07.836Z,18.5
2016-05-11T00:18:07.823Z,18.5
2016-05-11T00:19:07.951Z,18.52
2016-05-11T00:20:07.938Z,18.47
2016-05-11T00:21:07.924Z,18.52
2016-05-11T00:22:07.896Z,18.42
2016-05-11T00:23:07.915Z,18.4
2016-05-11T00:24:07.870Z,18.42
2016-05-11T00:25:07.843Z,18.43
2016-05-11T00:26:07.813Z,18.31
2016-05-11T00:27:07.801Z,18.36
2016-05-11T00:28:07.804Z,18.37
2016-05-11T00:29:07.775Z,18.33
2016-05-11T00:30:07.496Z,18.34
2016-05-11T00:31:07.592Z,18.29
2016-05-11T00:32:07.720Z,18.37
2016-05-11T00:33:07.801Z,18.33
2016-05-11T00:34:07.679Z,18.33
2016-05-11T00:35:07.681Z,18.37
2016-05-11T00:36:07.637Z,18.39
2016-05-11T00:37:07.625Z,18.34
2016-05-11T00:38:07.611Z,18.31
2016-05-11T00:39:07.583Z,18.29
2016-05-11T00:40:07.258Z,18.28
2016-05-11T00:41:07.557Z,18.27
2016-05-11T00:42:07.372Z,18.22
2016-05-11T00:43:07.515Z,18.21
2016-05-11T00:44:07.487Z,18.27
2016-05-11T00:45:07.489Z,18.22
2016-05-11T00:46:07.477Z,18.21
2016-05-11T00:47:07.292Z,18.24
2016-05-11T00:48:07.419Z,18.24
2016-05-11T00:49:07.422Z,18.24
2016-05-11T00:50:07.394Z,18.17
2016-05-11T00:51:07.380Z,18.17
2016-05-11T00:52:07.352Z,18.13
2016-05-11T00:53:07.339Z,18.15
2016-05-11T00:54:07.326Z,18.07
2016-05-11T00:55:07.141Z,18.06
2016-05-11T00:56:07.285Z,18.18
2016-05-11T00:57:07.271Z,18.12
2016-05-11T00:58:07.259Z,18.13
2016-05-11T00:59:07.090Z,18.1
2016-05-11T01:00:07.295Z,18.13
2016-05-11T01:01:07.204Z,18.12
2016-05-11T01:02:07.191Z,18.1
2016-05-11T01:03:07.162Z,18.1
2016-05-11T01:04:07.134Z,18.1
2016-05-11T01:05:07.122Z,18.13
2016-05-11T01:06:07.093Z,18.12
2016-05-11T01:07:07.080Z,18.12
2016-05-11T01:08:07.051Z,18.1
2016-05-11T01:09:07.038Z,18.03
2016-05-11T01:10:07.025Z,18.03
2016-05-11T01:11:06.841Z,18.06
2016-05-11T01:12:06.828Z,18.04
2016-05-11T01:13:06.972Z,18.06
2016-05-11T01:14:06.958Z,18.04
2016-05-11T01:15:06.930Z,18.03
2016-05-11T01:16:06.916Z,17.95
2016-05-11T01:17:06.936Z,17.87
2016-05-11T01:18:06.859Z,17.97
2016-05-11T01:19:06.862Z,17.99
2016-05-11T01:20:06.833Z,17.89
2016-05-11T01:21:06.821Z,17.84
2016-05-11T01:22:06.652Z,17.84
2016-05-11T01:23:06.779Z,17.85
2016-05-11T01:24:06.782Z,17.87
2016-05-11T01:25:06.753Z,17.89
2016-05-11T01:26:06.725Z,17.81
2016-05-11T01:27:06.712Z,17.81
2016-05-11T01:28:06.699Z,17.84
2016-05-11T01:29:06.671Z,17.85
2016-05-11T01:30:06.501Z,17.78
2016-05-11T01:31:06.628Z,17.76
2016-05-11T01:32:06.459Z,17.74
2016-05-11T01:33:06.604Z,17.76
2016-05-11T01:34:06.418Z,17.78
2016-05-11T01:35:06.562Z,17.73
2016-05-11T01:36:06.548Z,17.71
2016-05-11T01:37:06.379Z,17.7
2016-05-11T01:38:06.350Z,17.73
2016-05-11T01:39:06.495Z,17.7
2016-05-11T01:40:06.466Z,17.71
2016-05-11T01:41:06.452Z,17.73
2016-05-11T01:42:06.425Z,17.73
2016-05-11T01:43:06.427Z,17.78
2016-05-11T01:44:06.414Z,17.71
2016-05-11T01:45:06.386Z,17.69
2016-05-11T01:46:06.357Z,17.71
2016-05-11T01:47:06.187Z,17.67
2016-05-11T01:48:06.330Z,17.66
2016-05-11T01:49:06.162Z,17.67
2016-05-11T01:50:06.274Z,17.63
2016-05-11T01:51:06.277Z,17.67
2016-05-11T01:52:06.248Z,17.63
2016-05-11T01:53:06.235Z,17.62
2016-05-11T01:54:06.222Z,17.62
2016-05-11T01:55:06.193Z,17.64
2016-05-11T01:56:06.180Z,17.63
2016-05-11T01:57:06.152Z,17.66
2016-05-11T01:58:06.140Z,17.64
2016-05-11T01:59:06.126Z,17.64
2016-05-11T02:00:06.113Z,17.62
2016-05-11T02:01:06.084Z,17.63
2016-05-11T02:02:06.071Z,17.63
2016-05-11T02:03:05.886Z,17.66
2016-05-11T02:04:06.031Z,17.59
2016-05-11T02:05:06.002Z,17.63
2016-05-11T02:06:05.989Z,17.63
2016-05-11T02:07:05.819Z,17.66
2016-05-11T02:08:05.947Z,17.63
2016-05-11T02:09:05.934Z,17.69
2016-05-11T02:10:05.921Z,17.64
2016-05-11T02:11:05.892Z,17.64
2016-05-11T02:12:05.927Z,17.64
2016-05-11T02:13:05.851Z,17.63
2016-05-11T02:14:05.838Z,17.66
2016-05-11T02:15:05.841Z,17.64
2016-05-11T02:16:05.641Z,17.63
2016-05-11T02:17:05.784Z,17.63
2016-05-11T02:18:05.786Z,17.63
2016-05-11T02:19:05.805Z,17.64
2016-05-11T02:20:05.574Z,17.64
2016-05-11T02:21:05.701Z,17.64
2016-05-11T02:22:05.532Z,17.7
2016-05-11T02:23:05.363Z,17.64
2016-05-11T02:24:05.662Z,17.57
2016-05-11T02:25:05.633Z,17.57
2016-05-11T02:26:05.620Z,17.62
2016-05-11T02:27:05.607Z,17.55
2016-05-11T02:28:05.595Z,17.55
2016-05-11T02:29:05.566Z,17.54
2016-05-11T02:30:05.396Z,17.66
2016-05-11T02:31:05.540Z,17.64
2016-05-11T02:32:05.356Z,17.59
2016-05-11T02:33:05.530Z,17.59
2016-05-11T02:34:05.470Z,17.64
2016-05-11T02:35:05.301Z,17.63
2016-05-11T02:36:05.444Z,17.62
2016-05-11T02:37:05.415Z,17.69
2016-05-11T02:38:05.231Z,17.64
2016-05-11T02:39:05.406Z,17.63
2016-05-11T02:40:05.362Z,17.64
2016-05-11T02:41:05.333Z,17.66
2016-05-11T02:42:05.320Z,17.57
2016-05-11T02:43:05.306Z,17.64
2016-05-11T02:44:05.309Z,17.63
2016-05-11T02:45:05.265Z,17.62
2016-05-11T02:46:05.237Z,17.63
2016-05-11T02:47:05.224Z,17.63
2016-05-11T02:48:05.258Z,17.59
2016-05-11T02:49:05.198Z,17.69
2016-05-11T02:50:05.185Z,17.57
2016-05-11T02:51:05.157Z,17.55
2016-05-11T02:52:04.988Z,17.59
2016-05-11T02:53:05.146Z,17.63
2016-05-11T02:54:05.102Z,17.53
2016-05-11T02:55:05.089Z,17.51
2016-05-11T02:56:05.060Z,17.48
2016-05-11T02:57:05.032Z,17.44
2016-05-11T02:58:05.018Z,17.46
2016-05-11T02:59:04.850Z,17.44
2016-05-11T03:00:04.838Z,17.53
2016-05-11T03:01:04.809Z,17.53
2016-05-11T03:02:04.936Z,17.44
2016-05-11T03:03:04.939Z,17.48
2016-05-11T03:04:04.909Z,17.46
2016-05-11T03:05:04.897Z,17.35
2016-05-11T03:06:04.885Z,17.44
2016-05-11T03:07:04.856Z,17.35
2016-05-11T03:08:04.843Z,17.47
2016-05-11T03:09:04.814Z,17.46
2016-05-11T03:10:04.801Z,17.36
2016-05-11T03:11:04.772Z,17.38
2016-05-11T03:12:04.759Z,17.46
2016-05-11T03:13:04.747Z,17.48
2016-05-11T03:14:04.734Z,17.46
2016-05-11T03:15:04.580Z,17.41
2016-05-11T03:16:04.692Z,17.44
2016-05-11T03:17:04.508Z,17.46
2016-05-11T03:18:04.651Z,17.54
2016-05-11T03:19:04.638Z,17.51
2016-05-11T03:20:04.610Z,17.53
2016-05-11T03:21:04.596Z,17.5
2016-05-11T03:22:04.583Z,17.5
2016-05-11T03:23:04.555Z,17.53
2016-05-11T03:24:04.526Z,17.54
2016-05-11T03:25:04.530Z,17.51
2016-05-11T03:26:04.360Z,17.46
2016-05-11T03:27:04.488Z,17.5
2016-05-11T03:28:04.460Z,17.47
2016-05-11T03:29:04.462Z,17.55
2016-05-11T03:30:04.432Z,17.5
2016-05-11T03:31:04.411Z,17.5
2016-05-11T03:32:04.266Z,17.51
2016-05-11T03:33:04.464Z,17.53
2016-05-11T03:34:04.476Z,17.48
2016-05-11T03:35:04.502Z,17.55
2016-05-11T03:36:04.509Z,17.64
2016-05-11T03:37:04.510Z,17.55
2016-05-11T03:38:04.496Z,17.53
2016-05-11T03:39:04.497Z,17.57
2016-05-11T03:40:04.342Z,17.67
2016-05-11T03:41:04.514Z,17.57
2016-05-11T03:42:04.475Z,17.55
2016-05-11T03:43:04.466Z,17.57
2016-05-11T03:44:04.459Z,17.57
2016-05-11T03:45:04.279Z,17.53
2016-05-11T03:46:04.411Z,17.5
2016-05-11T03:47:04.244Z,17.51
2016-05-11T03:48:04.404Z,17.53
2016-05-11T03:49:04.393Z,17.53
2016-05-11T03:50:04.351Z,17.57
2016-05-11T03:51:04.168Z,17.53
2016-05-11T03:52:04.311Z,17.51
2016-05-11T03:53:04.299Z,17.5
2016-05-11T03:54:04.287Z,17.51
2016-05-11T03:55:04.259Z,17.55
2016-05-11T03:56:04.246Z,17.48
2016-05-11T03:57:04.218Z,17.55
2016-05-11T03:58:04.205Z,17.62
2016-05-11T03:59:04.192Z,17.64
2016-05-11T04:00:04.164Z,17.7
2016-05-11T04:01:04.153Z,17.73
2016-05-11T04:02:03.967Z,17.74
2016-05-11T04:03:04.111Z,17.82
2016-05-11T04:04:04.098Z,17.92
2016-05-11T04:05:04.069Z,17.89
2016-05-11T04:06:04.055Z,18.17
2016-05-11T04:07:04.058Z,18.21
2016-05-11T04:08:04.047Z,18.17
2016-05-11T04:09:04.002Z,18.13
2016-05-11T04:10:03.973Z,18.15
2016-05-11T04:11:03.960Z,18.12
2016-05-11T04:12:03.946Z,18.15
2016-05-11T04:13:03.918Z,18.06
2016-05-11T04:14:03.969Z,18.1
2016-05-11T04:15:04.174Z,18.13
2016-05-11T04:16:03.880Z,18.03
2016-05-11T04:17:03.695Z,18.02
2016-05-11T04:18:03.838Z,18.03
2016-05-11T04:19:03.669Z,18.04
2016-05-11T04:20:03.640Z,18
2016-05-11T04:21:03.612Z,17.95
2016-05-11T04:22:03.771Z,18.07
2016-05-11T04:23:03.742Z,17.99
2016-05-11T04:24:03.714Z,18.03
2016-05-11T04:25:03.717Z,18.03
2016-05-11T04:26:03.673Z,18.09
2016-05-11T04:27:03.676Z,18.03
2016-05-11T04:28:03.662Z,18.04
2016-05-11T04:29:03.618Z,18.12
2016-05-11T04:30:03.605Z,18.09
2016-05-11T04:31:03.608Z,18.04
2016-05-11T04:32:03.563Z,18.15
2016-05-11T04:33:03.567Z,18.06
2016-05-11T04:34:03.537Z,18.13
2016-05-11T04:35:03.352Z,18.1
2016-05-11T04:36:03.355Z,18.13
2016-05-11T04:37:03.327Z,18.15
2016-05-11T04:38:03.454Z,18.17
2016-05-11T04:39:03.301Z,18.18
2016-05-11T04:40:03.428Z,18.22
2016-05-11T04:41:03.416Z,18.31
2016-05-11T04:42:03.388Z,18.34
2016-05-11T04:43:03.374Z,18.4
2016-05-11T04:44:03.205Z,18.44
2016-05-11T04:45:03.349Z,18.44
2016-05-11T04:46:03.304Z,18.58
2016-05-11T04:47:03.307Z,18.68
2016-05-11T04:48:03.122Z,18.92
2016-05-11T04:49:03.265Z,18.94
2016-05-11T04:50:03.237Z,18.84
2016-05-11T04:51:03.208Z,18.76
2016-05-11T04:52:03.210Z,18.82
2016-05-11T04:53:03.182Z,18.82
2016-05-11T04:54:03.170Z,18.68
2016-05-11T04:55:03.140Z,18.79
2016-05-11T04:56:03.129Z,18.79
2016-05-11T04:57:03.114Z,18.82
2016-05-11T04:58:03.102Z,18.84
2016-05-11T04:59:02.933Z,18.83
2016-05-11T05:00:03.123Z,18.83
2016-05-11T05:01:03.109Z,18.86
2016-05-11T05:02:02.863Z,18.91
2016-05-11T05:03:03.006Z,18.9
2016-05-11T05:04:02.837Z,18.97
2016-05-11T05:05:02.825Z,19.01
2016-05-11T05:06:02.967Z,19.06
2016-05-11T05:07:02.783Z,19.01
2016-05-11T05:08:02.910Z,19.13
2016-05-11T05:09:02.897Z,19.1
2016-05-11T05:10:02.744Z,19.23
2016-05-11T05:11:02.887Z,19.21
2016-05-11T05:12:02.843Z,19.2
2016-05-11T05:13:02.830Z,19.28
2016-05-11T05:14:02.645Z,19.32
2016-05-11T05:15:02.851Z,19.29
2016-05-11T05:16:03.119Z,19.33
2016-05-11T05:17:02.763Z,19.36
2016-05-11T05:18:02.952Z,19.33
2016-05-11T05:19:04.377Z,19.48
2016-05-11T05:20:02.552Z,19.48
2016-05-11T05:21:02.538Z,19.53
2016-05-11T05:22:02.745Z,19.58
2016-05-11T05:23:02.669Z,19.55
2016-05-11T05:24:02.484Z,19.57
2016-05-11T05:25:02.644Z,19.57
2016-05-11T05:26:02.614Z,19.57
2016-05-11T05:27:02.430Z,19.54
2016-05-11T05:28:02.557Z,19.65
2016-05-11T05:29:02.560Z,19.55
2016-05-11T05:30:02.547Z,19.53
2016-05-11T05:31:02.520Z,19.53
2016-05-11T05:32:02.506Z,19.55
2016-05-11T05:33:02.525Z,19.65
2016-05-11T05:34:02.465Z,19.58
2016-05-11T05:35:02.451Z,19.54
2016-05-11T05:36:02.423Z,19.57
2016-05-11T05:37:02.410Z,19.58
2016-05-11T05:38:02.397Z,19.58
2016-05-11T05:39:02.384Z,19.57
2016-05-11T05:40:02.356Z,19.69
2016-05-11T05:41:02.342Z,19.8
2016-05-11T05:42:02.314Z,19.78
2016-05-11T05:43:02.302Z,19.9
2016-05-11T05:44:02.288Z,19.88
2016-05-11T05:45:01.963Z,19.95
2016-05-11T05:46:01.966Z,20.02
2016-05-11T05:47:02.249Z,20.13
2016-05-11T05:48:02.080Z,20.18
2016-05-11T05:49:02.208Z,20.12
2016-05-11T05:50:02.039Z,20.25
2016-05-11T05:51:02.166Z,20.38
2016-05-11T05:52:01.857Z,20.39
2016-05-11T05:53:01.984Z,20.51
2016-05-11T05:54:02.127Z,20.46
2016-05-11T05:55:02.115Z,20.46
2016-05-11T05:56:02.086Z,20.51
2016-05-11T05:57:01.917Z,20.43
2016-05-11T05:58:02.045Z,20.61
2016-05-11T05:59:02.047Z,20.51
2016-05-11T06:00:02.018Z,20.54
2016-05-11T06:01:02.053Z,20.53
2016-05-11T06:02:01.992Z,20.54
2016-05-11T06:03:01.965Z,20.66
2016-05-11T06:04:01.967Z,20.66
2016-05-11T06:05:01.939Z,20.68
2016-05-11T06:06:01.925Z,20.64
2016-05-11T06:07:01.912Z,20.74
2016-05-11T06:08:01.900Z,20.69
2016-05-11T06:09:01.871Z,20.74
2016-05-11T06:10:01.875Z,20.69
2016-05-11T06:11:01.861Z,20.56
2016-05-11T06:12:01.675Z,20.66
2016-05-11T06:13:01.820Z,20.61
2016-05-11T06:14:01.791Z,20.58
2016-05-11T06:15:01.794Z,20.64
2016-05-11T06:16:02.093Z,20.71
2016-05-11T06:17:01.736Z,20.83
2016-05-11T06:18:01.724Z,21.02
2016-05-11T06:19:01.554Z,21.08
2016-05-11T06:20:08.355Z,21.2
2016-05-11T06:21:05.574Z,21.24
2016-05-11T06:22:03.187Z,21.27
2016-05-11T06:23:03.003Z,21.36
2016-05-11T06:24:09.443Z,21.44
2016-05-11T06:25:01.726Z,21.53
2016-05-11T06:26:08.026Z,21.74
2016-05-11T06:27:04.326Z,21.57
2016-05-11T06:28:03.032Z,21.74
2016-05-11T06:29:02.722Z,21.81
2016-05-11T06:30:01.599Z,21.79
2016-05-11T06:31:01.352Z,21.92
2016-05-11T06:32:01.511Z,21.83
2016-05-11T06:33:01.483Z,22.02
2016-05-11T06:34:01.314Z,22.01
2016-05-11T06:35:01.457Z,22.06
2016-05-11T06:36:01.429Z,22.1
2016-05-11T06:37:01.431Z,22.19
2016-05-11T06:38:01.262Z,22.23
2016-05-11T06:39:01.405Z,22.23
2016-05-11T06:40:01.408Z,22.39
2016-05-11T06:41:01.364Z,22.47
2016-05-11T06:42:01.194Z,22.53
2016-05-11T06:43:01.338Z,22.75
2016-05-11T06:44:01.168Z,22.99
2016-05-11T06:45:01.311Z,23.09
2016-05-11T06:46:00.987Z,23.15
2016-05-11T06:47:01.114Z,23.24
2016-05-11T06:48:01.102Z,23.32
2016-05-11T06:49:01.260Z,23.23
2016-05-11T06:50:01.232Z,23.4
2016-05-11T06:51:01.219Z,23.57
2016-05-11T06:52:01.205Z,23.67
2016-05-11T06:53:01.208Z,23.57
2016-05-11T06:54:01.164Z,23.58
2016-05-11T06:55:01.166Z,23.64
2016-05-11T06:56:01.154Z,23.55
2016-05-11T06:57:00.985Z,23.55
2016-05-11T06:58:01.112Z,23.67
2016-05-11T06:59:01.146Z,23.8
2016-05-11T07:00:01.087Z,24
2016-05-11T07:01:05.965Z,24.2
2016-05-11T07:02:10.561Z,24.76
2016-05-11T07:03:01.047Z,25.1
2016-05-11T07:04:01.066Z,25.32
2016-05-11T07:05:01.085Z,25.42
2016-05-11T07:06:01.009Z,25.54
2016-05-11T07:07:00.996Z,25.9
2016-05-11T07:08:00.998Z,26.27
2016-05-11T07:09:00.970Z,26.94
2016-05-11T07:10:00.957Z,27.42
2016-05-11T07:11:00.944Z,27.92
2016-05-11T07:12:00.791Z,28.32
2016-05-11T07:13:00.933Z,28.78
2016-05-11T07:14:00.906Z,29.31
2016-05-11T07:15:00.892Z,29.74
2016-05-11T07:16:00.848Z,30.12
2016-05-11T07:17:00.866Z,30.4
2016-05-11T07:18:00.885Z,30.78
2016-05-11T07:19:00.872Z,30.81
2016-05-11T07:20:00.843Z,31.04
2016-05-11T07:21:00.846Z,31.33
2016-05-11T07:22:00.833Z,31.58
2016-05-11T07:23:00.663Z,31.95
2016-05-11T07:24:00.807Z,32.21
2016-05-11T07:25:00.810Z,32.51
2016-05-11T07:26:00.796Z,32.77
2016-05-11T07:27:00.628Z,32.96
2016-05-11T07:28:00.631Z,33.29
2016-05-11T07:29:00.774Z,33.14
2016-05-11T07:30:00.448Z,33.34
2016-05-11T07:31:00.763Z,33.6
2016-05-11T07:32:00.751Z,33.6
2016-05-11T07:33:00.581Z,33.65
2016-05-11T07:34:00.756Z,33.79
2016-05-11T07:35:00.743Z,33.97
2016-05-11T07:36:00.731Z,34.01
2016-05-11T07:37:00.733Z,34.23
2016-05-11T07:38:00.720Z,34.29
2016-05-11T07:39:00.567Z,34.38
2016-05-11T07:40:00.710Z,34.7
2016-05-11T07:41:02.947Z,34.84
2016-05-11T07:42:00.715Z,35.06
2016-05-11T07:43:03.421Z,35.13
2016-05-11T07:44:04.689Z,35.3
2016-05-11T07:45:04.567Z,35.35
2016-05-11T07:46:05.351Z,35.39
2016-05-11T07:47:03.745Z,35.4
2016-05-11T07:48:04.044Z,35.33
2016-05-11T07:49:00.672Z,35.51
2016-05-11T07:50:03.971Z,35.48
2016-05-11T07:51:04.239Z,35.54
2016-05-11T07:52:03.304Z,35.42
2016-05-11T07:53:04.901Z,35.64
2016-05-11T07:54:04.811Z,35.6
2016-05-11T07:55:04.938Z,35.64
2016-05-11T07:56:05.035Z,35.62
2016-05-11T07:57:04.662Z,35.84
2016-05-11T07:58:04.789Z,35.97
2016-05-11T07:59:04.464Z,36.15
2016-05-11T08:00:04.811Z,36.19
2016-05-11T08:01:04.454Z,36.45
2016-05-11T08:02:04.816Z,36.64
2016-05-11T08:03:04.428Z,36.65
2016-05-11T08:04:05.009Z,36.76
2016-05-11T08:05:04.480Z,36.82
2016-05-11T08:06:04.765Z,36.76
2016-05-11T08:07:05.173Z,36.87
2016-05-11T08:08:02.223Z,35.64
2016-05-11T08:09:04.459Z,35.48
2016-05-11T08:10:04.540Z,35.92
2016-05-11T08:11:04.778Z,36.23
2016-05-11T08:12:00.593Z,36.21
2016-05-11T08:13:00.580Z,35.99
2016-05-11T08:14:03.536Z,36.29
2016-05-11T08:15:04.851Z,35.14
2016-05-11T08:16:02.994Z,35.36
2016-05-11T08:17:04.841Z,35.51
2016-05-11T08:18:00.578Z,35.72
2016-05-11T08:19:00.564Z,35.92
2016-05-11T08:20:00.583Z,36.26
2016-05-11T08:21:00.555Z,36.27
2016-05-11T08:22:00.572Z,36.38
2016-05-11T08:23:00.560Z,36.56
2016-05-11T08:24:00.563Z,36.57
2016-05-11T08:25:00.409Z,36.15
2016-05-11T08:26:00.552Z,35.76
2016-05-11T08:27:00.555Z,35.89
2016-05-11T08:28:02.496Z,36.21
2016-05-11T08:29:00.544Z,36.29
2016-05-11T08:30:00.547Z,36.24
2016-05-11T08:31:01.144Z,36.38
2016-05-11T08:32:00.537Z,36.26
2016-05-11T08:33:00.524Z,36.3
2016-05-11T08:34:00.371Z,36.19
2016-05-11T08:35:00.529Z,35.25
2016-05-11T08:36:00.517Z,35.45
2016-05-11T08:37:00.520Z,35.4
2016-05-11T08:38:00.506Z,35.47
2016-05-11T08:39:00.509Z,35.66
2016-05-11T08:40:00.512Z,35.45
2016-05-11T08:41:00.499Z,35.6
2016-05-11T08:42:00.501Z,35.72
2016-05-11T08:43:00.504Z,35.82
2016-05-11T08:44:00.507Z,35.66
2016-05-11T08:45:00.509Z,35.91
2016-05-11T08:46:01.340Z,35.51
2016-05-11T08:47:00.328Z,34.84
2016-05-11T08:48:00.502Z,33.95
2016-05-11T08:49:00.490Z,32.81
2016-05-11T08:50:00.476Z,32.33
2016-05-11T08:51:00.572Z,32.88
2016-05-11T08:52:00.466Z,33.27
2016-05-11T08:53:00.313Z,33.46
2016-05-11T08:54:00.471Z,33.36
2016-05-11T08:55:00.474Z,32.89
2016-05-11T08:56:00.446Z,32.29
2016-05-11T08:57:00.449Z,31.75
2016-05-11T08:58:00.451Z,31.33
2016-05-11T08:59:00.438Z,31.04
2016-05-11T09:00:00.488Z,30.59
2016-05-11T09:01:00.662Z,30.3
2016-05-11T09:02:00.415Z,30
2016-05-11T09:03:00.418Z,29.59
2016-05-11T09:04:00.233Z,29.41
2016-05-11T09:05:00.391Z,29.18
2016-05-11T09:06:00.378Z,28.97
2016-05-11T09:07:00.366Z,28.81
2016-05-11T09:08:00.353Z,28.53
2016-05-11T09:09:00.339Z,28.31
2016-05-11T09:10:00.343Z,28.09
2016-05-11T09:11:00.329Z,28.01
2016-05-11T09:12:00.332Z,27.82
2016-05-11T09:13:00.320Z,27.67
2016-05-11T09:14:00.165Z,27.41
2016-05-11T09:15:00.137Z,27.28
2016-05-11T09:16:00.124Z,26.77
2016-05-11T09:17:00.595Z,26.31
2016-05-11T09:18:00.098Z,25.91
2016-05-11T09:19:00.241Z,25.94
2016-05-11T09:20:00.245Z,26.21
2016-05-11T09:21:00.247Z,26.08
2016-05-11T09:22:00.219Z,26.11
2016-05-11T09:23:00.190Z,25.79
2016-05-11T09:24:00.036Z,25.5
2016-05-11T09:25:00.180Z,25.32
2016-05-11T09:26:00.167Z,25.25
2016-05-11T09:27:00.154Z,25.09
2016-05-11T09:28:00.141Z,24.88
2016-05-11T09:29:00.128Z,24.98
2016-05-11T09:30:00.099Z,25.02
2016-05-11T09:31:00.274Z,24.9
2016-05-11T09:32:00.105Z,24.6
2016-05-11T09:33:00.076Z,24.49
2016-05-11T09:33:59.907Z,24.52
2016-05-11T09:35:00.051Z,24.57
2016-05-11T09:36:00.084Z,24.56
2016-05-11T09:37:00.024Z,24.67
2016-05-11T09:38:00.026Z,24.76
2016-05-11T09:38:59.999Z,24.82
2016-05-11T09:39:59.986Z,24.77
2016-05-11T09:40:59.973Z,24.85
2016-05-11T09:41:59.960Z,24.92
2016-05-11T09:42:59.947Z,24.97
2016-05-11T09:43:59.934Z,25.07
2016-05-11T09:44:59.920Z,25.1
2016-05-11T09:46:00.017Z,25.19
2016-05-11T09:46:59.739Z,25.12
2016-05-11T09:47:59.882Z,24.98
2016-05-11T09:48:59.869Z,24.8
2016-05-11T09:49:59.856Z,24.91
2016-05-11T09:50:59.859Z,24.88
2016-05-11T09:51:59.815Z,25.06
2016-05-11T09:52:59.817Z,25.05
2016-05-11T09:53:59.648Z,25.15
2016-05-11T09:54:59.791Z,25.05
2016-05-11T09:55:59.778Z,25.09
2016-05-11T09:56:59.610Z,25.01
2016-05-11T09:57:59.738Z,25.07
2016-05-11T09:58:59.724Z,24.94
2016-05-11T09:59:59.711Z,25
2016-05-11T10:00:59.901Z,24.97
2016-05-11T10:01:59.701Z,24.97
2016-05-11T10:02:59.516Z,24.97
2016-05-11T10:03:59.659Z,24.97
2016-05-11T10:04:59.663Z,24.97
2016-05-11T10:05:59.477Z,24.95
2016-05-11T10:06:59.637Z,25.05
2016-05-11T10:07:59.608Z,25.15
2016-05-11T10:08:59.454Z,25.02
2016-05-11T10:09:59.426Z,24.85
2016-05-11T10:10:59.569Z,24.8
2016-05-11T10:11:59.556Z,24.9
2016-05-11T10:12:59.543Z,24.92
2016-05-11T10:13:59.531Z,25.01
2016-05-11T10:14:59.501Z,25.17
2016-05-11T10:15:59.567Z,25.24
2016-05-11T10:16:59.492Z,25.28
2016-05-11T10:17:59.478Z,25.31
2016-05-11T10:18:59.466Z,25.32
2016-05-11T10:19:59.453Z,25.49
2016-05-11T10:20:59.425Z,25.54
2016-05-11T10:21:59.411Z,25.52
2016-05-11T10:22:59.397Z,25.64
2016-05-11T10:23:59.386Z,25.67
2016-05-11T10:24:59.388Z,25.52
2016-05-11T10:25:59.375Z,25.42
2016-05-11T10:26:59.347Z,25.32
2016-05-11T10:27:59.333Z,25.42
2016-05-11T10:28:59.024Z,25.42
2016-05-11T10:29:59.324Z,25.19
2016-05-11T10:30:59.294Z,25.22
2016-05-11T10:32:46.923Z,25.44
2016-05-11T10:32:59.347Z,25.47
2016-05-11T10:33:59.335Z,25.47
2016-05-11T10:34:59.305Z,25.74
2016-05-11T10:35:59.294Z,25.64
2016-05-11T10:36:59.263Z,25.72
2016-05-11T10:37:59.267Z,25.64
2016-05-11T10:38:59.254Z,25.74
2016-05-11T10:39:59.241Z,25.56
2016-05-11T10:40:59.229Z,25.57
2016-05-11T10:41:59.200Z,25.54
2016-05-11T10:42:59.046Z,25.65
2016-05-11T10:43:59.173Z,25.53
2016-05-11T10:44:59.160Z,25.82
2016-05-11T10:45:59.601Z,25.8
2016-05-11T10:46:59.134Z,25.99
2016-05-11T10:47:59.153Z,26.11
2016-05-11T10:49:00.812Z,26.05
2016-05-11T10:49:59.112Z,26.18
2016-05-11T10:50:59.083Z,26.25
2016-05-11T10:51:59.070Z,26.24
2016-05-11T10:52:59.057Z,26.22
2016-05-11T10:54:01.764Z,26.24
2016-05-11T10:54:59.047Z,26.22
2016-05-11T10:55:59.034Z,26.2
2016-05-11T10:56:59.005Z,26.18
2016-05-11T10:57:58.992Z,26.02
2016-05-11T10:58:59.730Z,26.06
2016-05-11T10:59:58.967Z,26.05
2016-05-11T11:00:59.219Z,26.12
2016-05-11T11:01:58.941Z,26.12
2016-05-11T11:02:58.928Z,26.11
2016-05-11T11:04:00.431Z,26.05
2016-05-11T11:04:58.746Z,26.04
2016-05-11T11:05:58.889Z,26.09
2016-05-11T11:06:58.892Z,26.09
2016-05-11T11:07:58.879Z,26.06
2016-05-11T11:08:58.897Z,25.91
2016-05-11T11:09:58.681Z,26.05
2016-05-11T11:10:58.825Z,26.09
2016-05-11T11:11:58.827Z,26.2
2016-05-11T11:12:58.798Z,26.17
2016-05-11T11:13:58.802Z,26.12
2016-05-11T11:14:58.788Z,26.24
2016-05-11T11:15:58.478Z,26.09
2016-05-11T11:16:58.746Z,26.06
2016-05-11T11:17:58.594Z,26.11
2016-05-11T11:18:59.956Z,25.94
2016-05-11T11:19:58.708Z,25.84
2016-05-11T11:20:58.555Z,25.99
2016-05-11T11:21:58.682Z,25.99
2016-05-11T11:22:58.670Z,26.01
2016-05-11T11:23:59.922Z,26.01
2016-05-11T11:24:58.643Z,26.04
2016-05-11T11:25:58.631Z,25.86
2016-05-11T11:26:58.461Z,25.84
2016-05-11T11:27:58.620Z,25.65
2016-05-11T11:28:59.576Z,25.72
2016-05-11T11:29:58.578Z,25.75
2016-05-11T11:30:58.425Z,25.77
2016-05-11T11:31:58.553Z,25.84
2016-05-11T11:32:58.447Z,25.83
2016-05-11T11:33:59.199Z,25.87
2016-05-11T11:34:58.514Z,25.71
2016-05-11T11:35:58.501Z,25.75
2016-05-11T11:36:58.488Z,25.68
2016-05-11T11:37:58.475Z,25.64
2016-05-11T11:39:00.071Z,25.64
2016-05-11T11:39:58.449Z,25.74
2016-05-11T11:40:58.452Z,25.59
2016-05-11T11:41:58.424Z,25.56
2016-05-11T11:42:58.441Z,25.5
2016-05-11T11:43:58.694Z,25.44
2016-05-11T11:44:58.385Z,25.42
2016-05-11T11:45:58.216Z,25.37
2016-05-11T11:46:58.359Z,25.27
2016-05-11T11:47:58.330Z,25.34
2016-05-11T11:48:58.318Z,25.42
2016-05-11T11:49:58.320Z,25.34
2016-05-11T11:50:58.291Z,25.39
2016-05-11T11:51:58.291Z,25.38
2016-05-11T11:52:58.263Z,25.32
2016-05-11T11:53:59.518Z,25.3
2016-05-11T11:54:58.237Z,25.28
2016-05-11T11:55:58.223Z,25.3
2016-05-11T11:56:58.212Z,25.38
2016-05-11T11:57:58.198Z,25.47
2016-05-11T11:58:58.185Z,25.39
2016-05-11T12:00:01.113Z,25.3
2016-05-11T12:00:58.442Z,25.38
2016-05-11T12:01:58.147Z,25.52
2016-05-11T12:02:58.133Z,25.56
2016-05-11T12:03:58.120Z,25.53
2016-05-11T12:04:58.108Z,25.53
2016-05-11T12:05:58.079Z,25.52
2016-05-11T12:06:57.925Z,25.5
2016-05-11T12:07:57.897Z,25.42
2016-05-11T12:08:58.056Z,25.5
2016-05-11T12:09:58.043Z,25.53
2016-05-11T12:10:58.046Z,25.54
2016-05-11T12:11:58.017Z,25.53
2016-05-11T12:12:57.989Z,25.52
2016-05-11T12:13:57.976Z,25.5
2016-05-11T12:14:57.963Z,25.53
2016-05-11T12:15:58.402Z,25.43
2016-05-11T12:16:57.968Z,25.5
2016-05-11T12:17:57.924Z,25.54
2016-05-11T12:18:57.926Z,25.52
2016-05-11T12:19:57.742Z,25.56
2016-05-11T12:20:57.885Z,25.5
2016-05-11T12:21:57.873Z,25.47
2016-05-11T12:22:57.859Z,25.59
2016-05-11T12:23:57.721Z,25.57
2016-05-11T12:24:57.521Z,25.57
2016-05-11T12:25:57.820Z,25.54
2016-05-11T12:26:57.807Z,25.68
2016-05-11T12:27:57.795Z,25.68
2016-05-11T12:28:57.798Z,25.62
2016-05-11T12:29:57.769Z,25.65
2016-05-11T12:30:57.881Z,25.59
2016-05-11T12:31:57.758Z,25.68
2016-05-11T12:32:57.730Z,25.57
2016-05-11T12:33:57.701Z,25.52
2016-05-11T12:34:57.703Z,25.65
2016-05-11T12:35:57.691Z,25.68
2016-05-11T12:36:57.663Z,25.68
2016-05-11T12:37:57.675Z,25.72
2016-05-11T12:38:57.725Z,25.59
2016-05-11T12:39:58.056Z,25.65
2016-05-11T12:40:57.794Z,25.68
2016-05-11T12:41:57.828Z,25.69
2016-05-11T12:42:57.830Z,25.68
2016-05-11T12:43:57.694Z,25.67
2016-05-11T12:44:57.681Z,25.82
2016-05-11T12:45:57.826Z,25.69
2016-05-11T12:46:57.846Z,25.75
2016-05-11T12:47:57.844Z,25.71
2016-05-11T12:48:57.837Z,25.83
2016-05-11T12:49:57.846Z,25.74
2016-05-11T12:50:57.824Z,25.75
2016-05-11T12:51:57.802Z,25.77
2016-05-11T12:52:57.808Z,25.89
2016-05-11T12:53:57.797Z,25.79
2016-05-11T12:54:57.785Z,25.91